sensor_id;sensor_type;location;lat;lon;timestamp;pressure;altitude;pressure_sealevel;temperature;humidity
39699;BME280;25372;50.582;12.250;2024-03-07T00:06:29;100548.53;;;2.16;100.00
39699;BME280;25372;50.582;12.250;2024-03-07T00:16:51;100540.66;;;2.20;100.00
39699;BME280;25372;50.582;12.250;2024-03-07T00:27:12;100543.25;;;2.20;100.00
39699;BME280;25372;50.582;12.250;2024-03-07T00:37:35;100536.97;;;2.34;100.00
39699;BME280;25372;50.582;12.250;2024-03-07T00:47:57;100529.19;;;2.34;100.00
39699;BME280;25372;50.582;12.250;2024-03-07T00:58:19;100519.38;;;2.50;100.00
39699;BME280;25372;50.582;12.250;2024-03-07T01:08:41;100509.53;;;2.68;100.00
39699;BME280;25372;50.582;12.250;2024-03-07T01:19:03;100491.59;;;2.57;100.00
39699;BME280;25372;50.582;12.250;2024-03-07T01:29:26;100504.09;;;2.80;100.00
39699;BME280;25372;50.582;12.250;2024-03-07T01:39:49;100502.66;;;2.65;100.00
39699;BME280;25372;50.582;12.250;2024-03-07T01:50:10;100491.13;;;2.80;100.00
39699;BME280;25372;50.582;12.250;2024-03-07T02:00:32;100495.97;;;2.97;100.00
39699;BME280;25372;50.582;12.250;2024-03-07T02:10:53;100494.78;;;2.70;100.00
39699;BME280;25372;50.582;12.250;2024-03-07T02:21:16;100478.63;;;2.98;100.00
39699;BME280;25372;50.582;12.250;2024-03-07T02:31:38;100479.00;;;2.80;100.00
39699;BME280;25372;50.582;12.250;2024-03-07T02:42:02;100460.56;;;2.93;100.00
39699;BME280;25372;50.582;12.250;2024-03-07T02:52:23;100461.50;;;2.90;100.00
39699;BME280;25372;50.582;12.250;2024-03-07T03:02:46;100466.69;;;2.90;100.00
39699;BME280;25372;50.582;12.250;2024-03-07T03:13:07;100451.31;;;2.83;100.00
39699;BME280;25372;50.582;12.250;2024-03-07T03:23:31;100458.44;;;3.12;100.00
39699;BME280;25372;50.582;12.250;2024-03-07T03:33:52;100446.69;;;2.96;100.00
39699;BME280;25372;50.582;12.250;2024-03-07T03:44:14;100447.72;;;2.88;100.00
39699;BME280;25372;50.582;12.250;2024-03-07T03:54:35;100447.84;;;2.80;100.00
39699;BME280;25372;50.582;12.250;2024-03-07T04:04:58;100458.78;;;2.54;100.00
39699;BME280;25372;50.582;12.250;2024-03-07T04:15:19;100452.00;;;2.89;100.00
39699;BME280;25372;50.582;12.250;2024-03-07T04:25:43;100453.03;;;2.80;100.00
39699;BME280;25372;50.582;12.250;2024-03-07T04:36:04;100445.31;;;2.38;100.00
39699;BME280;25372;50.582;12.250;2024-03-07T04:46:29;100457.91;;;2.11;100.00
39699;BME280;25372;50.582;12.250;2024-03-07T04:56:52;100469.44;;;1.93;100.00
39699;BME280;25372;50.582;12.250;2024-03-07T05:07:15;100466.38;;;1.71;100.00
39699;BME280;25372;50.582;12.250;2024-03-07T05:17:36;100471.38;;;1.81;100.00
39699;BME280;25372;50.582;12.250;2024-03-07T05:28:00;100473.44;;;1.62;100.00
39699;BME280;25372;50.582;12.250;2024-03-07T05:38:22;100480.03;;;1.24;100.00
39699;BME280;25372;50.582;12.250;2024-03-07T05:48:44;100485.28;;;1.19;100.00
39699;BME280;25372;50.582;12.250;2024-03-07T05:59:10;100490.88;;;0.90;100.00
39699;BME280;25372;50.582;12.250;2024-03-07T06:09:32;100497.09;;;0.76;100.00
39699;BME280;25372;50.582;12.250;2024-03-07T06:19:53;100511.66;;;0.83;100.00
39699;BME280;25372;50.582;12.250;2024-03-07T06:30:16;100514.41;;;0.68;100.00
39699;BME280;25372;50.582;12.250;2024-03-07T06:40:38;100526.84;;;1.08;100.00
39699;BME280;25372;50.582;12.250;2024-03-07T06:51:04;100522.72;;;1.56;100.00
39699;BME280;25372;50.582;12.250;2024-03-07T07:01:25;100525.75;;;1.83;97.36
39699;BME280;25372;50.582;12.250;2024-03-07T07:11:50;100527.84;;;2.13;95.24
39699;BME280;25372;50.582;12.250;2024-03-07T07:22:11;100528.16;;;1.94;94.24
39699;BME280;25372;50.582;12.250;2024-03-07T07:32:34;100533.03;;;2.13;90.35
39699;BME280;25372;50.582;12.250;2024-03-07T07:42:55;100529.19;;;1.84;85.72
39699;BME280;25372;50.582;12.250;2024-03-07T07:53:18;100529.47;;;2.18;83.26
39699;BME280;25372;50.582;12.250;2024-03-07T08:03:39;100542.28;;;2.73;78.36
39699;BME280;25372;50.582;12.250;2024-03-07T08:14:02;100539.97;;;3.02;74.95
39699;BME280;25372;50.582;12.250;2024-03-07T08:24:23;100539.69;;;3.16;75.07
39699;BME280;25372;50.582;12.250;2024-03-07T08:34:45;100538.81;;;3.15;72.27
39699;BME280;25372;50.582;12.250;2024-03-07T08:45:08;100533.44;;;2.82;73.46
39699;BME280;25372;50.582;12.250;2024-03-07T08:55:31;100550.00;;;3.19;70.87
39699;BME280;25372;50.582;12.250;2024-03-07T09:05:52;100534.38;;;3.60;69.56
39699;BME280;25372;50.582;12.250;2024-03-07T09:16:15;100534.38;;;3.60;68.54
39699;BME280;25372;50.582;12.250;2024-03-07T09:26:36;100523.13;;;4.29;62.50
39699;BME280;25372;50.582;12.250;2024-03-07T09:36:58;100519.66;;;4.92;58.27
39699;BME280;25372;50.582;12.250;2024-03-07T09:47:20;100521.50;;;4.88;59.75
39699;BME280;25372;50.582;12.250;2024-03-07T09:57:42;100515.28;;;5.22;58.55
39699;BME280;25372;50.582;12.250;2024-03-07T10:08:04;100506.31;;;4.41;60.29
39699;BME280;25372;50.582;12.250;2024-03-07T10:18:28;100512.03;;;5.15;61.17
39699;BME280;25372;50.582;12.250;2024-03-07T10:28:49;100514.06;;;5.06;59.57
39699;BME280;25372;50.582;12.250;2024-03-07T10:39:11;100508.16;;;4.70;59.74
39699;BME280;25372;50.582;12.250;2024-03-07T10:49:48;100514.97;;;5.04;60.52
39699;BME280;25372;50.582;12.250;2024-03-07T11:00:15;100505.56;;;4.69;62.43
39699;BME280;25372;50.582;12.250;2024-03-07T11:10:55;100510.81;;;4.67;63.57
39699;BME280;25372;50.582;12.250;2024-03-07T11:21:41;100516.59;;;4.45;63.08
39699;BME280;25372;50.582;12.250;2024-03-07T11:32:03;100513.63;;;4.28;63.75
39699;BME280;25372;50.582;12.250;2024-03-07T11:42:26;100501.78;;;4.49;62.60
39699;BME280;25372;50.582;12.250;2024-03-07T11:52:48;100503.25;;;3.93;64.80
39699;BME280;25372;50.582;12.250;2024-03-07T12:03:12;100493.09;;;3.84;64.15
39699;BME280;25372;50.582;12.250;2024-03-07T12:13:34;100491.41;;;3.81;65.32
39699;BME280;25372;50.582;12.250;2024-03-07T12:23:57;100486.88;;;3.89;63.81
39699;BME280;25372;50.582;12.250;2024-03-07T12:34:19;100485.50;;;3.74;63.37
39699;BME280;25372;50.582;12.250;2024-03-07T12:44:42;100493.16;;;3.81;62.49
39699;BME280;25372;50.582;12.250;2024-03-07T12:55:06;100478.25;;;4.22;61.47
39699;BME280;25372;50.582;12.250;2024-03-07T13:05:29;100481.63;;;4.87;58.74
39699;BME280;25372;50.582;12.250;2024-03-07T13:15:51;100466.22;;;4.80;58.42
39699;BME280;25372;50.582;12.250;2024-03-07T13:26:20;100465.03;;;4.90;56.95
39699;BME280;25372;50.582;12.250;2024-03-07T13:36:44;100461.03;;;4.50;57.27
39699;BME280;25372;50.582;12.250;2024-03-07T13:47:07;100453.31;;;5.05;55.97
39699;BME280;25372;50.582;12.250;2024-03-07T13:57:36;100447.84;;;5.13;57.49
39699;BME280;25372;50.582;12.250;2024-03-07T14:08:22;100451.44;;;5.10;54.00
39699;BME280;25372;50.582;12.250;2024-03-07T14:30:07;100446.69;;;4.95;56.77
39699;BME280;25372;50.582;12.250;2024-03-07T14:40:34;100441.81;;;4.84;57.37
39699;BME280;25372;50.582;12.250;2024-03-07T14:50:56;100391.47;;;4.56;55.68
39699;BME280;25372;50.582;12.250;2024-03-07T15:01:18;100432.97;;;5.18;57.17
39699;BME280;25372;50.582;12.250;2024-03-07T15:11:40;100422.06;;;4.46;55.89
39699;BME280;25372;50.582;12.250;2024-03-07T15:22:02;100436.50;;;4.57;57.84
39699;BME280;25372;50.582;12.250;2024-03-07T15:32:25;100430.88;;;4.11;58.33
39699;BME280;25372;50.582;12.250;2024-03-07T15:42:47;100427.59;;;4.04;58.34
39699;BME280;25372;50.582;12.250;2024-03-07T15:53:12;100430.22;;;4.02;57.95
39699;BME280;25372;50.582;12.250;2024-03-07T16:03:34;100427.47;;;3.75;60.10
39699;BME280;25372;50.582;12.250;2024-03-07T16:13:56;100416.25;;;3.73;58.35
39699;BME280;25372;50.582;12.250;2024-03-07T16:24:17;100417.50;;;3.58;61.77
39699;BME280;25372;50.582;12.250;2024-03-07T16:34:39;100420.56;;;3.40;60.42
39699;BME280;25372;50.582;12.250;2024-03-07T16:45:03;100417.72;;;3.13;62.00
39699;BME280;25372;50.582;12.250;2024-03-07T16:55:25;100422.41;;;2.98;61.81
39699;BME280;25372;50.582;12.250;2024-03-07T17:05:47;100437.91;;;3.01;62.24
39699;BME280;25372;50.582;12.250;2024-03-07T17:16:10;100445.84;;;2.93;62.32
39699;BME280;25372;50.582;12.250;2024-03-07T17:26:31;100445.97;;;2.87;62.80
39699;BME280;25372;50.582;12.250;2024-03-07T17:36:53;100456.06;;;2.62;60.51
39699;BME280;25372;50.582;12.250;2024-03-07T17:47:14;100460.59;;;2.50;61.48
39699;BME280;25372;50.582;12.250;2024-03-07T17:57:37;100460.53;;;2.54;61.96
39699;BME280;25372;50.582;12.250;2024-03-07T18:07:58;100461.50;;;2.49;61.88
39699;BME280;25372;50.582;12.250;2024-03-07T18:18:20;100463.16;;;2.52;62.84
39699;BME280;25372;50.582;12.250;2024-03-07T18:28:43;100445.38;;;2.33;64.50
39699;BME280;25372;50.582;12.250;2024-03-07T18:39:06;100454.91;;;2.31;62.36
39699;BME280;25372;50.582;12.250;2024-03-07T18:49:42;100443.00;;;2.22;63.25
39699;BME280;25372;50.582;12.250;2024-03-07T19:00:06;100450.78;;;2.22;63.73
39699;BME280;25372;50.582;12.250;2024-03-07T19:10:46;100452.94;;;2.00;67.25
39699;BME280;25372;50.582;12.250;2024-03-07T19:21:08;100446.94;;;1.97;66.50
39699;BME280;25372;50.582;12.250;2024-03-07T19:31:31;100445.22;;;1.95;67.95
39699;BME280;25372;50.582;12.250;2024-03-07T19:41:55;100429.94;;;1.81;68.05
39699;BME280;25372;50.582;12.250;2024-03-07T19:52:16;100435.47;;;1.61;73.12
39699;BME280;25372;50.582;12.250;2024-03-07T20:02:38;100427.72;;;1.58;71.45
39699;BME280;25372;50.582;12.250;2024-03-07T20:13:00;100424.50;;;1.45;74.94
39699;BME280;25372;50.582;12.250;2024-03-07T20:23:23;100413.19;;;1.51;75.39
39699;BME280;25372;50.582;12.250;2024-03-07T20:33:47;100399.59;;;1.38;71.90
39699;BME280;25372;50.582;12.250;2024-03-07T20:44:11;100399.81;;;1.24;70.46
39699;BME280;25372;50.582;12.250;2024-03-07T20:54:32;100399.19;;;1.09;71.23
39699;BME280;25372;50.582;12.250;2024-03-07T21:04:54;100387.06;;;1.13;71.85
39699;BME280;25372;50.582;12.250;2024-03-07T21:15:16;100388.63;;;1.23;73.32
39699;BME280;25372;50.582;12.250;2024-03-07T21:25:39;100382.50;;;1.29;69.53
39699;BME280;25372;50.582;12.250;2024-03-07T21:36:00;100385.63;;;1.47;71.11
39699;BME280;25372;50.582;12.250;2024-03-07T21:46:23;100384.09;;;1.36;69.83
39699;BME280;25372;50.582;12.250;2024-03-07T21:56:44;100380.38;;;1.53;69.83
39699;BME280;25372;50.582;12.250;2024-03-07T22:07:07;100373.41;;;1.55;69.38
39699;BME280;25372;50.582;12.250;2024-03-07T22:17:31;100377.88;;;1.47;70.43
39699;BME280;25372;50.582;12.250;2024-03-07T22:27:53;100372.63;;;1.51;69.74
39699;BME280;25372;50.582;12.250;2024-03-07T22:38:14;100360.72;;;1.41;72.92
39699;BME280;25372;50.582;12.250;2024-03-07T22:48:37;100355.38;;;1.49;72.05
39699;BME280;25372;50.582;12.250;2024-03-07T22:59:00;100351.16;;;1.46;72.10
39699;BME280;25372;50.582;12.250;2024-03-07T23:09:22;100345.66;;;1.13;74.80
39699;BME280;25372;50.582;12.250;2024-03-07T23:19:44;100334.44;;;1.13;74.82
39699;BME280;25372;50.582;12.250;2024-03-07T23:30:07;100331.31;;;0.32;78.93
39699;BME280;25372;50.582;12.250;2024-03-07T23:40:29;100310.91;;;-0.65;87.07
39699;BME280;25372;50.582;12.250;2024-03-07T23:50:51;100325.03;;;-1.05;88.42
